Date,TemperatureHighF,TemperatureAvgF,TemperatureLowF,DewpointHighF,DewpointAvgF,DewpointLowF,HumidityHigh,HumidityAvg,HumidityLow,PressureMaxIn,PressureMinIn,WindSpeedMaxMPH,WindSpeedAvgMPH,GustSpeedMaxMPH,PrecipitationSumIn
2013-1-1,31.1,22.3,8.4,19.2,12.0,-0.9,66,64,60,29.70,29.60,2,0,2,0.00
2013-1-2,20.3,10.5,-0.6,10.1,1.4,-9.2,69,66,64,29.79,29.70,5,0,5,0.00
2013-1-3,22.5,12.6,2.5,12.1,3.5,-6.2,70,67,63,29.73,29.56,4,0,4,0.00
2013-1-4,29.7,21.3,4.5,19.0,12.4,-3.2,74,68,63,29.62,29.53,2,0,2,0.00
2013-1-5,34.3,21.0,14.5,23.7,12.8,7.8,75,70,63,29.66,29.48,4,0,4,0.00
2013-1-6,39.2,26.9,17.1,27.9,17.9,9.3,73,69,60,29.49,29.31,5,0,5,0.00
2013-1-7,42.8,36.0,23.5,29.5,24.4,14.5,69,63,58,29.35,29.16,13,0,13,0.03
2013-1-8,42.6,37.7,30.7,27.5,22.7,18.9,63,55,50,29.44,29.18,8,0,8,0.03
2013-1-9,50.2,43.9,35.2,32.4,27.6,21.9,59,52,49,29.38,29.08,9,2,9,0.03
2013-1-10,31.8,20.8,11.3,25.4,15.1,5.5,81,78,77,29.24,29.06,6,1,6,0.00
2013-1-11,11.3,7.3,-1.7,3.7,1.5,-7.4,77,76,76,29.47,29.24,5,0,5,0.00
2013-1-12,11.3,0.9,-9.8,5.2,-5.1,-16.1,76,75,73,29.56,29.44,2,0,2,0.00
2013-1-13,13.1,5.9,0.5,6.7,-0.4,-5.6,76,75,73,29.62,29.50,2,0,2,0.00
2013-1-14,20.7,15.0,-3.1,13.7,8.4,-9.6,77,75,73,29.55,29.47,8,0,8,0.00
2013-1-15,35.8,28.8,19.6,27.6,21.6,13.2,79,74,71,29.72,29.53,0,0,0,0.00
2013-1-16,41.5,32.4,20.7,30.3,23.5,13.2,78,70,61,29.76,29.65,8,0,8,0.00
2013-1-17,39.0,29.4,15.1,27.9,20.3,8.2,74,69,62,29.77,29.57,4,0,4,0.00
2013-1-18,53.1,37.4,26.8,33.7,23.2,14.6,68,57,41,29.59,29.43,7,0,7,0.11
2013-1-19,49.5,36.7,28.4,30.7,22.6,16.6,63,57,46,29.70,29.54,6,0,6,0.06
2013-1-20,35.8,27.6,22.8,22.7,16.3,12.1,67,62,55,29.76,29.61,11,1,11,0.00
2013-1-21,51.3,36.6,19.6,31.4,22.9,11.4,71,58,46,29.63,29.46,4,0,4,0.00
2013-1-22,41.4,29.7,13.1,23.9,16.3,3.5,65,58,48,29.58,29.47,2,0,2,0.00
2013-1-23,39.7,33.5,22.1,25.1,21.1,12.8,67,60,54,29.50,29.30,2,0,2,0.00
2013-1-24,45.9,40.3,31.8,29.4,25.0,19.8,63,54,46,29.50,29.36,12,2,12,0.00
2013-1-25,50.2,42.4,36.3,33.7,29.0,20.6,67,59,52,29.50,29.34,7,0,7,0.00
2013-1-26,48.7,36.4,29.1,35.4,27.0,21.4,73,69,58,29.34,29.12,8,0,8,0.00
2013-1-27,36.7,30.0,18.1,27.1,21.3,9.3,75,70,59,29.33,29.21,5,0,5,0.00
2013-1-28,37.6,30.0,19.6,23.8,18.4,11.4,72,62,56,29.31,29.13,0,0,0,0.00
2013-1-29,24.6,15.8,11.1,14.7,6.1,0.5,75,65,60,29.54,29.13,2,0,2,0.00
2013-1-30,40.5,37.3,23.4,27.8,25.5,4.4,71,62,56,29.42,29.30,16,3,16,0.03
2013-1-31,46.0,41.5,37.6,30.4,27.8,25.4,62,58,53,29.54,29.42,9,1,9,0.06
2013-2-1,45.0,37.6,26.4,28.8,23.7,15.2,68,57,50,29.67,29.44,9,2,9,0.00
2013-2-2,43.7,33.2,22.8,28.2,20.8,13.5,69,61,52,29.77,29.66,6,1,6,0.00
2013-2-3,45.9,36.4,21.7,29.5,23.3,12.5,68,59,51,29.72,29.37,2,0,1,0.00
2013-2-4,46.2,41.3,34.7,31.4,27.1,22.0,65,57,54,29.38,29.34,6,0,6,0.00
2013-2-5,49.5,41.2,30.0,34.7,28.3,20.4,69,60,52,29.38,29.19,9,0,9,0.00
2013-2-6,45.5,36.7,28.9,30.7,23.6,17.5,67,59,48,29.45,29.25,10,1,10,0.00
2013-2-7,43.3,35.2,22.6,26.5,21.5,13.3,67,58,50,29.43,29.27,10,1,10,0.00
2013-2-8,41.4,30.4,18.1,24.6,18.0,9.3,69,60,50,29.38,29.30,6,1,6,0.00
2013-2-9,36.9,25.3,14.9,23.0,15.6,6.2,83,67,51,29.40,29.23,10,0,10,0.00
2013-2-10,30.0,24.0,8.4,22.3,15.7,-0.3,83,70,61,29.56,29.39,9,1,9,0.00
2013-2-11,34.7,25.5,9.7,23.0,15.5,-0.3,74,66,59,29.49,29.41,5,1,5,0.03
2013-2-12,42.6,37.8,26.4,29.3,25.5,10.7,75,61,53,29.57,29.41,12,1,12,0.06
2013-2-13,37.8,36.7,34.2,25.2,20.5,20.1,62,52,49,29.52,29.42,12,3,12,0.00
2013-2-14,38.3,32.3,22.6,25.8,20.8,14.6,71,63,53,29.75,29.52,12,1,12,0.00
2013-2-15,44.4,33.6,19.8,28.2,21.4,10.2,68,61,51,29.81,29.60,7,1,7,0.03
2013-2-16,51.6,34.6,21.0,33.7,22.8,13.1,73,63,46,29.61,29.18,9,1,9,0.00
2013-2-17,39.0,33.7,28.4,25.2,21.3,17.6,70,60,51,29.40,29.21,12,1,12,0.00
2013-2-18,36.7,28.4,17.2,21.2,15.5,8.5,70,59,50,29.48,29.25,8,0,8,0.03
2013-2-19,43.0,33.9,21.7,27.0,19.7,9.6,63,56,51,29.27,29.09,5,0,5,0.00
2013-2-20,39.7,32.0,18.9,27.5,21.2,9.4,69,64,58,29.31,29.16,5,0,5,0.00
2013-2-21,35.8,27.6,9.3,17.3,13.1,0.9,70,55,45,29.41,29.26,9,1,9,0.00
2013-2-22,45.1,37.7,21.4,25.6,21.2,11.1,64,51,44,29.36,29.08,9,1,9,0.00
2013-2-23,37.6,32.9,28.4,23.5,17.1,12.9,70,52,39,29.44,29.05,13,2,13,0.00
2013-2-24,37.2,27.9,17.1,17.6,12.8,5.5,61,53,42,29.59,29.43,9,1,9,0.00
2013-2-25,44.1,34.6,20.5,28.7,20.7,9.5,69,57,47,29.44,29.24,9,1,9,0.00
2013-2-26,38.7,33.8,24.1,22.4,17.4,10.5,65,51,44,29.58,29.36,9,2,9,0.00
2013-2-27,43.3,35.3,19.9,23.3,18.0,8.3,63,50,42,29.68,29.53,11,1,11,0.00
2013-2-28,37.6,35.6,21.7,24.5,22.2,8.1,59,58,56,29.64,29.60,6,1,0,0.00
2013-3-1,57.2,47.3,38.1,38.5,31.9,26.0,66,55,46,29.71,29.62,7,0,7,0.00
2013-3-2,59.5,41.7,30.0,38.2,27.6,20.6,69,58,42,29.69,29.30,8,0,8,0.00
2013-3-3,44.2,35.3,22.5,33.2,22.5,13.1,82,61,39,29.44,29.13,15,2,15,0.00
2013-3-4,27.7,22.2,9.1,19.3,14.1,0.5,82,71,63,29.72,29.44,7,1,7,0.00
2013-3-5,39.7,29.8,6.6,24.9,17.6,-1.1,72,61,53,29.58,29.34,7,1,7,0.06
2013-3-6,45.0,36.3,23.5,30.0,24.9,14.9,72,63,54,29.22,29.11,5,0,5,0.00
2013-3-7,48.7,39.7,25.7,28.9,23.1,16.9,70,52,38,29.45,29.18,9,2,9,0.00
2013-3-8,44.8,35.6,18.5,24.8,18.8,9.0,68,51,40,29.41,29.28,7,1,7,0.00
2013-3-9,43.0,31.4,19.9,25.1,16.9,9.0,65,55,43,29.63,29.38,7,0,7,0.00
2013-3-10,53.1,35.6,20.8,28.4,19.0,11.3,67,53,32,29.69,29.47,7,0,7,0.00
2013-3-11,45.0,36.9,26.4,23.9,20.1,14.2,60,51,40,29.62,29.46,14,2,14,0.00
2013-3-12,52.5,40.0,24.6,33.7,25.4,14.2,66,56,47,29.62,29.44,8,0,8,0.00
2013-3-13,59.4,47.5,39.4,35.0,29.1,25.4,59,49,40,29.57,29.47,6,0,4,0.00
2013-3-14,64.9,52.9,32.5,40.6,33.7,22.2,66,49,38,29.58,29.36,14,0,14,0.00
2013-3-15,56.7,50.3,36.5,33.6,29.4,22.8,62,45,37,29.50,29.37,10,2,10,0.00
2013-3-16,54.5,46.4,34.2,32.1,27.2,18.6,65,48,35,29.36,29.06,8,0,8,1.41
2013-3-17,40.1,33.6,25.0,26.5,19.1,10.8,83,56,42,29.29,28.99,14,3,14,0.00
2013-3-18,41.5,30.6,21.9,19.7,14.7,9.8,60,52,38,29.36,29.27,18,2,18,0.00
2013-3-19,43.3,31.5,22.1,19.1,14.2,8.2,63,50,33,29.66,29.36,9,1,9,0.00
2013-3-20,57.4,41.1,23.9,33.9,23.1,7.8,60,49,40,29.43,28.98,14,1,14,0.00
2013-3-21,40.1,34.0,22.8,24.0,16.0,7.5,60,48,35,29.33,29.10,13,2,13,0.00
2013-3-22,32.7,24.8,19.0,16.9,10.5,5.9,64,54,47,29.52,29.31,8,1,8,0.00
2013-3-23,34.0,22.4,10.0,14.2,7.3,-1.1,62,52,40,29.66,29.52,7,0,7,0.00
2013-3-24,34.5,21.7,8.4,13.5,6.1,-2.3,65,52,36,29.68,29.53,6,0,6,0.00
2013-3-25,44.2,27.2,12.0,18.2,8.6,-0.4,59,46,29,29.57,29.36,11,1,11,0.00
2013-3-26,53.6,42.5,28.8,28.6,21.1,13.6,54,43,33,29.53,29.31,7,1,24,0.00
2013-3-27,57.2,38.4,23.0,32.9,20.9,10.7,62,50,38,29.48,29.35,9,1,9,0.00
2013-3-28,58.8,43.2,27.5,38.4,27.5,16.7,68,55,41,29.51,29.40,8,0,8,0.00
2013-3-29,58.5,45.3,33.1,37.6,29.7,22.8,67,55,38,29.60,29.47,9,1,9,0.00
2013-3-30,56.7,43.4,31.6,33.1,26.1,18.3,68,52,34,29.68,29.49,7,1,7,0.00
2013-3-31,55.2,41.1,27.3,32.1,23.4,15.7,66,50,38,29.59,29.44,16,1,16,0.00
2013-4-1,58.5,40.6,24.6,31.9,22.5,13.8,67,50,31,29.54,29.36,9,1,9,0.00
2013-4-2,64.2,44.4,26.1,36.7,25.0,14.0,63,48,32,29.53,29.35,12,1,12,0.00
2013-4-3,61.7,49.7,39.4,36.4,30.4,23.9,60,48,35,29.56,29.40,8,1,8,0.00
2013-4-4,67.5,54.7,35.2,40.1,34.8,22.7,62,48,36,29.48,29.19,8,1,8,0.00
2013-4-5,60.3,50.1,39.0,35.9,31.4,24.8,68,50,30,29.31,29.17,12,2,12,0.00
2013-4-6,60.1,45.6,36.1,45.7,31.7,23.1,77,59,41,29.32,29.23,10,1,10,0.11
2013-4-7,54.1,40.3,30.4,39.4,30.8,23.2,80,69,51,29.26,29.01,8,0,8,0.33
2013-4-8,30.4,25.2,20.1,23.4,16.4,10.7,75,69,60,29.61,29.21,0,0,0,0.00
2013-4-9,36.5,26.9,16.7,22.4,16.1,8.0,69,64,54,29.77,29.55,5,0,5,0.14
2013-4-10,56.7,40.4,27.1,39.4,29.3,18.3,72,65,50,29.56,29.18,8,0,8,0.50
2013-4-11,52.7,44.2,36.1,33.2,27.3,19.7,69,53,36,29.43,29.23,12,2,12,0.21
2013-4-12,54.9,41.5,30.4,29.4,23.3,18.5,64,50,32,29.49,29.02,9,1,9,0.00
2013-4-13,52.2,42.4,31.1,30.8,22.4,10.9,61,46,24,29.10,28.87,15,3,15,0.00
2013-4-14,38.7,31.3,22.8,31.0,21.0,14.2,82,66,51,29.32,29.09,8,1,8,0.11
2013-4-15,35.1,26.2,20.3,19.5,15.2,12.9,77,64,45,29.49,29.30,12,2,12,0.00
2013-4-16,34.7,26.2,18.9,21.1,15.7,12.2,77,65,45,29.64,29.46,16,2,16,0.03
2013-4-17,36.0,27.2,19.6,19.3,14.3,10.0,74,60,40,29.73,29.59,8,1,8,0.03
2013-4-18,52.0,33.5,15.6,27.0,17.6,7.4,73,54,34,29.66,29.30,11,1,11,0.11
2013-4-19,57.4,42.6,29.1,36.8,27.9,17.5,65,57,43,29.52,29.27,11,1,11,0.00
2013-4-20,57.7,45.5,36.3,33.1,27.8,22.4,70,52,31,29.42,29.30,13,2,13,0.00
2013-4-21,40.1,30.6,21.7,28.1,22.2,16.8,82,71,53,29.61,29.41,8,1,8,0.06
2013-4-22,36.9,26.4,18.9,23.9,17.3,10.0,82,69,48,29.81,29.60,6,0,6,0.17
2013-4-23,49.8,30.4,12.7,29.2,17.0,5.7,76,59,36,29.69,29.51,9,1,9,0.03
2013-4-24,55.6,39.1,23.9,29.8,22.8,16.2,74,55,29,29.67,29.35,15,1,15,0.00
2013-4-25,60.3,48.7,33.3,32.1,26.3,21.2,62,43,29,29.45,29.32,14,2,14,0.00
2013-4-26,66.4,49.1,30.6,37.9,28.8,20.0,67,47,30,29.63,29.45,13,1,13,0.00
2013-4-27,71.8,55.1,36.5,40.6,30.4,23.6,64,41,23,29.57,29.34,14,2,14,0.00
2013-4-28,65.3,51.3,37.4,37.6,29.2,19.6,56,43,32,29.47,29.26,14,2,14,0.00
2013-4-29,60.6,45.2,32.5,41.3,25.5,13.5,75,46,31,29.26,29.08,22,3,22,0.00
2013-4-30,39.7,32.1,23.2,35.9,21.2,7.7,86,66,39,29.61,29.23,10,1,10,0.00
2013-5-1,47.3,34.7,20.1,33.0,22.7,14.9,84,64,37,29.91,29.61,11,1,11,0.06
2013-5-2,62.4,48.9,21.2,31.2,24.6,11.3,67,40,25,29.95,29.64,7,1,7,0.00
2013-5-3,61.0,47.0,36.9,43.2,30.6,17.5,81,54,36,29.66,29.59,8,1,8,0.30
2013-5-4,58.8,46.4,39.0,47.1,37.2,31.1,77,70,57,29.70,29.55,8,0,8,0.33
2013-5-5,62.4,46.2,30.4,41.6,32.8,24.0,80,62,37,29.60,29.39,10,0,10,0.03
2013-5-6,68.5,50.4,31.5,42.5,32.5,22.8,75,53,30,29.49,29.26,7,1,7,0.00
2013-5-7,66.0,51.1,34.2,40.2,32.7,23.3,69,51,38,29.48,29.31,14,2,14,0.00
2013-5-8,70.7,53.3,35.6,44.4,34.5,25.7,70,51,27,29.62,29.44,9,1,9,0.00
2013-5-9,72.9,56.5,40.5,45.8,36.7,28.5,67,49,29,29.63,29.47,15,1,15,0.00
2013-5-10,63.9,52.3,38.7,39.8,34.4,27.9,70,51,38,29.85,29.53,11,1,11,0.00
2013-5-11,78.3,53.8,35.6,45.5,35.4,25.4,69,52,28,29.75,29.50,9,1,9,0.00
2013-5-12,86.5,74.5,50.4,53.1,46.0,38.3,67,38,25,29.62,29.33,10,1,10,0.00
2013-5-13,87.6,66.8,48.4,55.7,42.5,36.4,67,44,21,29.49,29.13,23,2,23,0.00
2013-5-14,71.1,55.6,37.6,41.1,31.2,25.3,64,42,23,29.50,29.32,14,2,14,0.00
2013-5-15,70.7,58.1,41.7,42.0,33.5,25.9,66,41,29,29.52,29.29,10,1,10,0.00
2013-5-16,67.3,54.5,43.0,46.1,39.5,32.0,67,57,42,29.37,29.25,7,0,7,0.03
2013-5-17,57.7,47.8,36.1,44.1,38.1,27.6,76,69,60,29.38,29.30,4,0,4,0.14
2013-5-18,64.2,54.3,48.0,49.6,43.1,39.6,78,67,49,29.44,29.34,7,0,7,0.03
2013-5-19,55.2,50.4,46.4,46.3,42.6,39.2,78,75,71,29.54,29.40,0,0,0,0.50
2013-5-20,62.8,51.9,42.3,51.4,43.6,34.6,81,74,54,29.66,29.49,6,0,6,0.39
2013-5-21,70.3,52.4,34.2,50.5,39.8,28.3,83,64,42,29.50,29.18,5,0,5,0.00
2013-5-22,66.7,53.6,40.6,46.8,40.4,32.0,89,62,47,29.28,29.17,12,1,12,0.14
2013-5-23,55.6,45.8,39.7,52.1,41.9,36.0,91,86,71,29.42,29.27,6,0,6,0.80
2013-5-24,63.9,49.8,38.3,44.9,38.4,33.3,83,66,45,29.43,29.28,11,1,11,0.03
2013-5-25,63.7,51.3,35.6,46.0,38.0,27.1,74,61,43,29.44,29.33,8,1,44,0.03
2013-5-26,47.8,39.8,35.4,42.6,33.1,28.3,87,77,70,29.41,29.34,8,0,0,0.17
2013-5-27,63.9,50.7,37.0,51.6,42.5,32.7,86,74,56,29.38,29.19,8,0,8,0.00
2013-5-28,61.0,53.2,47.1,48.9,43.7,39.3,80,71,58,29.26,29.16,9,0,9,0.33
2013-5-29,65.3,53.2,45.0,48.7,43.8,39.2,89,71,52,29.24,29.09,7,0,7,0.14
2013-5-30,59.9,50.8,44.2,45.4,40.0,33.1,89,69,46,29.41,29.19,14,2,14,0.03
2013-5-31,54.9,49.0,40.3,41.3,36.3,31.6,71,61,55,29.67,29.41,10,1,10,0.00
2013-6-1,70.3,50.9,30.9,45.5,36.3,24.4,80,60,37,29.71,29.43,7,0,7,0.00
2013-6-2,70.2,53.0,44.4,53.8,42.3,36.3,81,68,40,29.44,29.26,9,0,9,0.25
2013-6-3,62.1,47.8,42.8,47.4,42.0,38.1,91,81,52,29.52,29.28,12,1,12,0.61
2013-6-4,59.5,48.4,40.5,53.9,42.4,33.7,91,81,54,29.70,29.52,8,0,8,0.03
2013-6-5,72.9,58.0,30.7,50.0,42.6,25.6,83,59,38,29.64,29.39,12,1,12,0.00
2013-6-6,76.8,59.2,41.4,53.3,44.3,33.7,76,59,41,29.59,29.36,8,1,8,0.00
2013-6-7,82.8,63.9,44.6,56.8,46.5,37.0,77,56,33,29.44,29.23,10,1,10,0.00
2013-6-8,75.0,60.4,44.8,43.1,38.1,30.7,71,46,24,29.47,29.32,12,2,12,0.00
2013-6-9,81.7,60.7,39.6,47.9,37.1,29.5,72,46,20,29.42,29.20,14,2,14,0.00
2013-6-10,77.2,59.0,38.1,45.4,36.5,25.0,65,45,29,29.41,29.18,9,1,9,0.00
2013-6-11,70.5,59.3,50.5,53.0,46.3,40.7,76,63,46,29.42,29.22,11,1,11,0.19
2013-6-12,76.8,59.9,45.0,56.6,51.4,35.7,91,75,46,29.45,29.27,8,1,8,0.64
2013-6-13,58.1,52.4,44.1,51.9,47.9,39.8,92,85,68,29.50,29.34,10,0,10,0.14
2013-6-14,63.9,50.0,35.6,45.1,36.4,31.8,88,63,34,29.57,29.43,10,1,10,0.00
2013-6-15,70.7,52.6,32.4,41.9,34.1,26.1,82,54,26,29.59,29.39,9,1,9,0.00
2013-6-16,73.2,56.7,36.5,47.5,38.7,27.8,76,53,32,29.61,29.46,9,2,9,0.00
2013-6-17,77.4,59.6,42.1,54.2,45.0,35.1,82,60,39,29.59,29.32,13,1,13,0.03
2013-6-18,57.9,57.9,57.9,42.8,42.8,42.8,57,57,57,29.41,29.12,6,0,6,0.00
2013-6-19,57.9,57.9,57.9,42.8,42.8,42.8,57,57,57,29.26,29.18,5,0,5,0.08
2013-6-20,57.9,57.9,57.9,42.8,42.8,42.8,57,57,57,29.44,29.22,9,1,9,0.14
2013-6-22,57.9,57.9,57.9,42.8,42.8,42.8,57,57,57,29.52,29.39,8,0,8,0.08
2013-6-23,57.9,57.9,57.9,42.8,42.8,42.8,57,57,57,29.44,29.18,7,0,7,0.00
2013-6-24,57.9,57.9,57.9,42.8,42.8,42.8,57,57,57,29.21,29.10,8,0,8,0.09
2013-6-25,57.9,57.9,57.9,42.8,42.8,42.8,57,57,57,29.35,29.17,10,0,10,0.03
2013-6-26,57.9,57.9,57.9,42.8,42.8,42.8,57,57,57,29.55,29.31,11,1,11,0.00
2013-6-27,57.9,57.9,57.9,42.8,42.8,42.8,57,57,57,29.69,29.55,8,0,8,0.00
2013-6-28,57.9,57.9,57.9,42.8,42.8,42.8,57,57,57,29.75,29.51,7,0,7,0.00
2013-6-29,57.9,57.9,57.9,42.8,42.8,42.8,57,57,57,29.66,29.45,8,0,8,0.00
2013-6-30,57.9,57.9,57.9,42.8,42.8,42.8,57,57,57,29.62,29.44,8,1,8,0.00
2013-7-1,57.9,57.9,57.9,42.8,42.8,42.8,57,57,57,29.67,29.47,9,1,9,0.00
2013-7-2,57.9,57.9,57.9,42.8,42.8,42.8,57,57,57,29.61,29.34,5,0,5,0.00
2013-7-3,57.9,57.9,57.9,42.8,42.8,42.8,57,57,57,29.51,29.28,15,2,15,0.00
2013-7-4,57.9,57.9,57.9,42.8,42.8,42.8,57,57,57,29.47,29.20,6,0,6,0.00
2013-7-5,57.9,57.9,57.9,42.8,42.8,42.8,57,57,57,29.40,29.19,9,1,9,0.00
2013-7-6,57.9,57.9,57.9,42.8,42.8,42.8,57,57,57,29.48,29.25,10,1,10,0.00
2013-7-7,57.9,57.9,57.9,42.8,42.8,42.8,57,57,57,29.48,29.25,12,1,12,0.00
2013-7-8,57.9,57.9,57.9,42.8,42.8,42.8,57,57,57,29.52,29.36,9,1,9,0.06
2013-7-9,57.9,57.9,57.9,42.8,42.8,42.8,57,57,57,29.68,29.45,10,1,10,0.00
2013-7-10,57.9,57.9,57.9,42.8,42.8,42.8,57,57,57,29.59,29.27,11,1,11,0.00
2013-7-11,57.9,57.9,57.9,42.8,42.8,42.8,57,57,57,29.40,29.33,5,1,5,0.00
2013-7-12,57.9,57.9,57.9,42.8,42.8,42.8,57,57,57,29.43,29.26,13,1,13,0.00
2013-7-13,57.9,57.9,57.9,42.8,42.8,42.8,57,57,57,29.58,29.38,12,1,12,0.00
2013-7-14,57.9,57.9,57.9,42.8,42.8,42.8,57,57,57,29.68,29.39,13,1,13,0.00
2013-7-15,57.9,57.9,57.9,42.8,42.8,42.8,57,57,57,29.54,29.33,14,2,14,0.00
2013-7-16,57.9,57.9,57.9,42.8,42.8,42.8,57,57,57,29.69,29.48,10,2,10,0.00
2013-7-17,60.6,58.1,57.4,57.1,46.5,42.8,93,66,57,29.97,29.39,10,1,10,0.52
2013-7-18,90.7,56.6,49.1,61.3,47.1,29.7,98,77,13,29.99,29.47,5,0,5,0.00
2013-7-19,91.2,69.3,45.9,48.2,35.9,24.0,82,39,10,29.96,29.47,12,2,12,0.00
2013-7-20,94.6,66.6,43.2,46.5,34.8,23.4,75,39,10,29.88,29.47,8,1,9,0.04
2013-7-21,102.4,71.8,46.0,44.4,31.7,23.0,67,30,10,29.78,29.68,9,1,9,0.00
2013-7-22,98.6,71.0,44.2,37.6,28.9,20.0,60,27,10,29.79,25.34,11,2,11,0.01
2013-7-23,100.2,71.0,50.0,44.5,31.7,22.0,61,29,10,25.48,25.39,8,2,8,0.00
2013-7-24,97.0,71.1,44.2,43.5,33.5,19.4,66,31,10,25.50,25.35,10,2,10,0.00
2013-7-25,90.7,70.1,49.5,51.9,44.3,38.8,79,44,19,25.55,25.43,7,1,7,0.00
2013-7-26,98.1,72.8,48.9,50.4,38.2,21.2,82,38,10,25.54,25.39,8,1,8,0.00
2013-7-27,94.6,70.3,50.5,41.0,32.4,20.8,57,28,11,25.44,25.26,8,1,8,0.02
2013-7-28,81.9,65.8,50.2,50.8,43.2,28.4,78,47,23,25.34,25.24,15,3,15,0.00
2013-7-29,76.6,62.5,52.2,48.3,44.4,41.4,69,53,34,25.43,25.28,16,4,16,0.00
2013-7-30,80.1,61.0,44.6,49.8,44.5,40.0,88,58,26,25.57,25.44,15,2,15,0.00
2013-7-31,88.3,63.7,41.5,53.7,43.2,35.1,90,54,16,25.59,25.44,15,3,15,0.02
2013-8-1,72.1,58.8,50.2,54.2,46.3,39.0,93,65,43,25.45,25.32,16,3,16,0.31
2013-8-2,74.3,58.8,45.3,69.1,51.6,44.2,98,79,39,25.48,25.28,13,2,13,0.41
2013-8-3,78.4,60.3,43.2,51.2,46.7,42.1,97,66,32,25.50,25.43,14,3,14,0.00
2013-8-4,86.9,63.8,45.0,51.2,42.1,33.9,93,54,17,25.48,25.38,10,2,10,0.00
2013-8-5,85.8,65.6,45.1,46.3,38.9,32.8,77,44,17,25.44,25.31,17,3,17,0.00
2013-8-6,85.6,64.6,45.0,51.4,41.2,32.8,91,50,16,25.42,25.39,15,3,15,0.00
2013-8-7,88.0,65.0,43.5,44.6,36.3,21.8,79,43,10,25.41,25.33,13,2,13,0.00
2013-8-8,82.6,63.5,44.1,50.4,43.7,38.2,85,53,23,25.48,25.38,17,3,17,0.00
2013-8-9,82.8,63.9,47.5,56.1,49.6,43.7,90,63,36,25.50,25.40,17,2,17,0.07
2013-8-10,83.3,61.5,44.6,54.5,48.1,43.0,95,66,32,25.47,25.39,13,2,13,0.01
2013-8-11,83.3,63.7,46.6,50.1,43.2,38.3,82,51,25,25.48,25.28,10,2,10,0.00
2013-8-12,85.6,65.1,44.1,45.8,40.5,34.2,79,46,18,25.49,25.42,14,2,14,0.00
2013-8-13,87.1,64.5,45.0,58.1,43.4,37.3,78,51,19,25.54,25.28,13,2,13,0.02
2013-8-14,91.4,64.2,43.3,52.2,40.5,29.6,92,52,12,25.52,25.39,14,2,14,0.01
2013-8-15,94.6,66.9,43.7,44.9,35.0,29.8,66,36,12,25.44,25.35,15,2,15,0.00
2013-8-16,96.3,69.4,46.8,43.8,34.3,23.5,63,33,10,25.41,25.31,16,2,16,0.00
2013-8-17,91.8,70.0,51.1,48.2,39.8,32.1,63,37,16,25.46,25.34,15,2,15,0.00
2013-8-18,92.3,71.3,52.3,47.4,40.5,35.0,68,37,14,25.46,25.36,14,3,14,0.00
2013-8-19,94.5,69.9,45.5,43.9,31.8,18.5,68,31,10,25.44,25.32,20,4,20,0.00
2013-8-20,93.0,67.9,44.8,42.1,32.9,24.9,59,32,11,25.42,25.30,18,3,18,0.00
2013-8-21,87.1,64.9,43.3,37.7,32.0,27.1,65,34,14,25.49,25.40,16,3,16,0.00
2013-8-22,87.4,65.3,44.1,54.1,40.8,30.4,66,44,21,25.47,25.28,15,3,15,0.04
2013-8-23,80.4,62.6,51.3,52.5,46.0,39.6,81,58,26,25.36,25.22,10,2,10,0.00
2013-8-24,82.2,62.2,47.1,49.1,44.2,40.9,81,56,25,25.34,25.28,12,2,12,0.00
2013-8-25,92.8,76.7,55.4,48.6,42.0,34.8,68,32,14,25.39,25.27,15,3,15,0.00
2013-8-26,87.8,65.0,48.2,57.4,44.2,35.4,77,52,19,25.42,25.33,16,2,16,0.07
2013-8-27,68.7,59.8,52.7,49.9,45.3,42.1,77,60,43,25.41,25.28,4,1,4,0.00
2013-8-28,89.4,62.4,47.8,60.2,48.7,40.4,87,64,26,25.47,25.33,14,2,14,0.26
2013-8-29,92.5,66.5,48.7,57.3,50.7,43.4,97,65,20,25.49,25.36,13,2,13,0.02
2013-8-30,89.6,66.2,48.7,56.2,46.9,35.7,96,59,15,25.48,25.37,13,3,13,0.00
2013-8-31,85.5,62.6,43.3,44.9,39.0,32.1,85,48,17,25.52,25.42,11,2,11,0.00
2013-9-1,92.1,64.5,40.6,43.3,36.8,31.3,81,44,14,25.46,25.28,11,2,11,0.00
2013-9-2,87.6,66.2,47.5,47.1,39.7,33.9,67,41,18,25.40,25.30,9,1,9,0.00
2013-9-3,87.6,66.9,49.3,57.8,45.3,39.5,89,51,23,25.55,25.40,13,2,13,0.02
2013-9-4,86.4,66.6,54.7,61.1,55.2,48.8,96,71,32,25.53,25.46,12,2,12,0.00
2013-9-5,88.5,65.2,49.3,58.7,51.9,45.9,94,67,29,25.49,25.39,15,2,15,0.01
2013-9-6,85.5,65.9,52.0,58.3,54.0,50.9,99,70,35,25.46,25.34,15,2,15,0.01
2013-9-7,79.3,65.7,57.7,57.7,55.8,48.8,94,72,45,25.49,25.36,15,3,15,0.02
2013-9-8,58.1,56.5,56.1,56.4,55.4,54.7,96,96,94,25.43,25.28,0,0,0,0.00
2013-9-9,56.5,56.5,56.5,55.4,55.4,55.4,96,96,96,25.28,25.28,0,0,0,0.00
2013-9-13,84.6,84.6,84.6,34.9,34.9,34.9,17,17,17,0.00,40.00,0,0,0,0.00
2013-9-14,84.6,84.6,84.6,34.9,34.9,34.9,17,17,17,25.28,25.28,0,0,0,0.00
2013-9-15,85.6,79.1,55.4,52.5,39.9,34.9,90,28,17,29.91,25.28,15,1,15,0.06
2013-9-16,84.6,65.1,50.5,50.7,44.7,40.0,81,53,22,25.32,25.17,15,2,15,0.00
2013-9-17,60.8,50.0,39.7,55.7,44.7,35.5,97,83,58,25.26,25.07,8,1,8,0.25
2013-9-18,62.1,49.4,41.7,50.4,41.3,31.9,99,78,39,25.42,25.07,16,2,16,0.02
2013-9-19,67.8,50.7,37.4,40.1,35.7,30.8,83,60,28,25.52,25.42,8,2,8,0.00
2013-9-20,78.8,52.1,32.9,38.7,30.3,21.8,88,53,14,25.44,25.17,10,2,10,0.00
2013-9-21,81.9,58.7,39.2,35.5,29.7,24.8,64,37,15,25.18,24.98,13,3,13,0.00
2013-9-22,68.2,51.9,42.1,49.8,38.9,31.7,91,63,33,29.91,25.03,12,2,12,0.09
2013-9-23,65.5,48.8,37.2,44.0,34.3,26.2,97,64,24,25.33,25.14,18,3,18,0.00
2013-9-24,58.1,42.2,33.8,44.3,36.2,28.5,97,80,50,25.32,25.12,8,1,8,0.66
2013-9-25,45.0,39.3,32.0,43.2,38.2,31.5,99,96,89,25.16,25.05,12,2,12,0.83
2013-9-26,40.1,34.7,30.2,37.8,33.8,29.7,99,96,89,25.37,25.16,6,0,6,0.92
2013-9-27,51.8,37.6,25.2,41.3,31.0,24.9,99,80,43,25.37,25.28,10,1,10,0.01
2013-9-28,59.7,50.3,38.3,38.6,34.8,32.1,82,56,42,25.29,25.14,17,3,17,0.00
2013-9-29,60.6,50.6,44.2,37.5,33.5,31.1,74,53,37,25.15,24.99,18,3,18,0.01
2013-9-30,56.8,46.4,39.2,38.0,31.2,16.6,79,58,27,25.28,24.92,18,3,18,0.00
2013-10-1,58.6,43.4,28.4,31.4,26.8,23.2,84,55,28,25.34,25.26,14,2,14,0.00
2013-10-2,54.3,39.9,27.0,31.1,27.0,24.4,91,63,33,25.45,25.28,9,2,9,0.00
2013-10-3,39.4,33.4,31.8,33.8,31.0,29.9,96,91,72,25.64,25.29,10,1,10,0.11
2013-10-4,52.0,35.3,25.2,35.5,29.7,23.4,96,82,46,25.75,25.64,4,0,4,0.17
2013-10-5,60.6,36.0,21.6,39.6,26.9,20.1,95,75,26,25.68,25.60,6,1,6,0.00
2013-10-6,66.7,42.3,28.2,40.5,31.9,26.6,95,71,29,25.63,25.43,9,1,9,0.00
2013-10-7,60.6,40.3,38.7,30.9,30.4,7.1,72,68,26,25.43,25.12,8,1,8,0.00
2013-10-8,51.6,38.5,26.4,31.7,25.6,21.8,88,63,32,25.31,25.18,15,2,15,0.00
2013-10-9,54.9,37.6,25.2,33.0,28.1,22.0,92,71,42,25.39,25.21,10,2,10,0.00
2013-10-10,57.7,39.3,25.2,38.1,27.6,21.3,96,68,27,25.24,25.11,14,2,14,0.00
2013-10-11,52.2,38.1,25.2,33.5,24.3,18.6,80,61,28,29.91,25.24,13,2,13,0.00
2013-10-12,50.7,34.2,22.8,28.4,23.7,18.7,89,68,41,25.44,25.35,9,2,9,0.00
2013-10-13,48.4,37.1,25.7,33.8,28.4,22.4,89,72,51,25.53,25.43,10,1,10,0.00
2013-10-14,38.3,33.5,26.2,32.1,28.0,23.2,89,80,72,25.69,25.53,6,0,6,0.00
2013-10-15,57.2,33.9,21.2,33.0,23.1,18.7,92,69,29,25.69,25.45,7,1,7,0.01
2013-10-16,45.1,33.5,23.5,32.5,26.3,18.9,90,76,48,25.50,25.41,10,1,10,0.02
2013-10-17,47.8,35.7,31.3,37.2,31.9,29.2,94,87,55,25.57,25.45,11,1,11,0.06
2013-10-18,56.1,36.2,23.9,39.7,26.9,22.2,95,74,30,25.57,25.40,9,1,9,0.08
2013-10-19,60.4,45.1,28.9,36.0,25.7,20.6,85,53,25,25.42,25.29,17,3,17,0.00
2013-10-20,58.1,45.3,34.7,35.1,30.4,25.7,82,58,34,25.45,25.37,13,2,13,0.00
2013-10-21,62.1,43.4,30.9,38.7,31.6,27.8,91,67,33,25.50,25.45,10,1,10,0.00
2013-10-22,67.1,43.5,29.8,40.8,28.6,20.3,93,63,17,25.51,25.44,12,2,12,0.00
2013-10-23,61.5,39.9,26.6,35.3,28.3,22.5,89,66,35,25.54,25.47,8,1,8,0.00
2013-10-24,61.7,38.6,26.2,37.6,30.4,24.2,94,75,40,25.54,25.43,8,1,8,0.00
2013-10-25,64.0,40.2,26.8,36.1,28.6,24.7,94,69,27,25.59,25.45,8,1,8,0.00
2013-10-26,66.2,40.4,26.2,34.4,26.5,21.9,89,63,24,25.59,25.41,8,1,8,0.04
2013-10-27,57.6,37.0,27.1,31.2,24.8,20.6,87,64,31,25.47,25.16,21,5,21,0.00
2013-10-28,27.1,19.7,17.6,23.2,15.6,12.7,88,84,78,25.49,25.39,15,5,15,0.00
2013-10-29,36.5,21.5,11.8,23.5,15.8,8.5,91,79,56,25.40,25.19,6,1,6,0.02
2013-10-30,50.9,28.9,16.5,35.9,22.1,14.5,94,78,43,25.26,25.18,12,1,12,0.04
2013-10-31,46.9,38.1,29.8,33.3,28.6,24.8,84,69,49,25.36,25.22,17,3,17,0.00
2013-11-1,53.4,39.5,28.4,33.0,27.4,20.5,86,64,35,25.49,25.36,13,3,13,0.05
2013-11-2,58.1,38.3,26.2,34.4,30.4,23.7,94,77,36,25.44,24.97,17,2,17,0.04
2013-11-3,44.4,32.8,27.1,32.1,22.9,14.6,97,69,46,25.48,25.05,9,2,9,0.00
2013-11-4,31.6,27.0,25.3,23.6,21.1,14.6,93,81,49,25.54,25.46,5,1,5,0.00
2013-11-5,25.3,25.3,25.3,23.6,23.6,23.6,93,93,93,25.54,25.54,0,0,0,0.00
2013-11-6,25.3,25.3,25.3,23.6,23.6,23.6,93,93,93,25.54,25.54,0,0,0,0.00
2013-11-7,46.2,38.3,34.9,37.3,33.0,29.1,87,81,71,25.15,25.03,21,5,21,0.06
2013-11-8,43.0,36.1,31.6,30.5,27.4,24.0,90,72,53,25.42,25.13,10,2,10,0.02
2013-11-9,46.4,33.2,24.3,28.8,23.7,19.6,88,71,36,25.49,25.41,8,1,8,0.00
2013-11-10,44.2,35.1,28.6,32.0,28.1,24.1,87,76,59,25.50,25.39,5,1,5,0.00
2013-11-11,45.9,34.7,28.8,34.4,28.6,24.8,88,79,63,25.68,25.49,5,1,5,0.05
2013-11-12,50.5,37.9,23.2,36.8,30.5,22.0,96,76,53,25.64,25.53,6,1,6,0.00
2013-11-13,52.9,41.1,32.7,37.3,28.2,22.2,88,62,41,25.55,25.45,26,3,18,0.00
2013-11-14,47.3,35.0,24.8,27.2,21.5,17.4,91,59,30,25.50,25.11,8,1,8,0.05
2013-11-15,42.4,36.0,24.8,22.4,18.3,15.5,80,50,38,25.10,24.75,15,3,15,0.00
2013-11-16,42.1,34.2,27.1,25.2,20.4,13.8,73,57,42,25.24,24.64,23,2,23,0.05
2013-11-17,38.5,31.7,24.4,21.2,15.7,11.6,63,52,39,25.25,24.93,8,2,8,0.00
2013-11-18,53.2,38.3,24.3,18.6,15.2,11.9,61,41,21,25.26,25.09,17,3,17,0.00
2013-11-19,55.9,44.8,32.4,30.0,24.7,17.6,59,46,32,25.09,24.96,16,4,16,0.00
2013-11-20,44.4,13.1,-3.6,29.7,5.3,-7.8,83,71,49,25.55,25.02,15,3,15,0.00
2013-11-21,20.7,4.7,-6.3,8.6,-1.1,-10.2,84,77,57,25.75,25.55,8,0,8,0.00
2013-11-22,29.5,12.3,1.6,12.4,4.7,-2.1,86,73,43,25.82,25.74,6,0,6,0.00
2013-11-23,32.7,14.7,4.8,14.8,7.5,1.4,87,75,45,25.80,25.07,5,0,5,0.14
2013-11-24,40.8,24.1,9.5,22.5,15.2,6.2,88,71,44,25.51,25.41,6,1,6,0.01
2013-11-25,44.8,27.4,16.5,24.0,18.5,13.1,87,71,43,25.64,25.52,5,1,5,0.00
2013-11-26,41.7,27.1,16.3,26.6,20.5,14.2,92,77,50,25.64,25.41,6,0,6,0.00
2013-11-27,45.9,30.6,20.7,27.6,22.5,16.6,84,73,46,25.42,25.36,4,0,4,0.00
2013-11-28,43.0,25.3,15.1,25.5,18.5,12.9,92,77,47,25.41,25.33,4,1,4,0.00
2013-11-29,47.1,29.5,17.2,26.4,20.4,14.6,90,71,38,25.45,25.36,8,1,8,0.00
2013-11-30,45.7,37.7,33.1,31.0,27.8,24.0,75,68,50,25.48,25.41,6,1,6,0.00
2013-12-1,45.3,41.2,36.3,33.9,28.9,24.9,75,62,50,25.42,25.02,14,2,14,0.02
2013-12-2,43.2,28.2,7.0,34.5,22.5,0.8,91,80,65,25.25,24.88,21,1,21,0.04
2013-12-3,6.8,2.2,-5.8,1.1,-3.4,-10.1,82,77,70,25.44,25.24,0,0,0,0.00
2013-12-4,3.9,-4.4,-20.4,-3.0,-9.9,-24.2,83,77,62,25.46,25.41,0,0,0,0.00
2013-12-5,1.6,-12.1,-23.1,-6.6,-16.9,-26.8,83,79,66,25.51,25.36,0,0,0,0.00
2013-12-6,-8.7,-15.8,-23.4,-15.3,-21.2,-27.9,83,76,64,25.56,25.49,0,0,0,0.00
2013-12-7,-8.1,-20.3,-28.1,-16.8,-25.6,-32.2,80,76,63,25.51,25.27,0,0,0,0.00
2013-12-8,6.1,-10.1,-25.1,-2.1,-15.1,-29.2,83,78,65,25.45,25.28,0,0,0,0.00
2013-12-9,23.0,9.1,-14.8,15.2,3.7,-18.9,84,79,61,25.44,25.33,4,0,4,0.00
2013-12-10,26.1,20.1,15.3,16.1,13.0,11.2,86,74,60,25.51,25.29,0,0,0,0.00
2013-12-11,31.5,20.8,12.7,18.8,12.7,8.0,83,71,48,25.54,25.50,0,0,0,0.00
2013-12-12,41.0,27.2,18.3,23.1,18.1,-10.5,84,70,42,25.53,25.28,8,1,8,0.00
2013-12-13,39.4,30.1,19.0,26.2,21.5,15.0,85,71,51,25.52,25.28,16,3,16,0.01
2013-12-14,41.2,35.1,25.3,27.3,23.9,19.7,80,64,52,25.64,25.43,8,2,8,0.04
2013-12-15,52.5,35.6,23.7,27.4,22.4,18.2,80,61,32,25.48,25.35,11,3,11,0.00
2013-12-16,45.9,34.4,24.8,24.5,20.4,16.2,73,57,36,25.57,25.39,8,2,8,0.00
2013-12-17,53.6,38.0,24.3,23.3,19.8,17.0,76,51,27,25.57,25.18,13,3,13,0.00
2013-12-18,49.5,39.2,15.1,22.7,18.1,9.2,78,45,27,25.22,25.06,13,3,13,0.00
2013-12-19,14.9,4.7,-3.5,9.3,-2.1,-7.8,83,73,59,25.41,25.22,17,2,17,0.00
2013-12-20,29.8,13.2,-2.4,16.5,5.9,-6.5,85,74,49,25.29,24.87,7,1,7,0.13
2013-12-21,30.2,25.5,17.4,19.3,16.4,12.7,86,69,55,25.24,24.88,13,3,13,0.00
2013-12-22,32.5,21.9,14.5,22.6,15.8,10.9,89,77,66,25.47,25.22,10,2,10,0.00
2013-12-23,43.0,30.8,18.7,33.1,24.2,15.5,89,77,60,25.46,25.18,18,2,18,0.08
2013-12-24,36.9,30.3,19.0,22.1,15.3,10.2,69,54,38,25.64,25.31,16,3,16,0.00
2013-12-25,37.9,23.5,13.1,20.3,11.8,6.7,78,62,33,25.65,25.47,8,2,8,0.00
2013-12-26,50.2,38.4,30.9,29.1,25.9,20.1,78,62,40,25.56,25.47,10,2,10,0.00
2013-12-27,49.1,36.4,28.6,27.2,23.3,19.3,76,60,36,25.51,25.23,8,2,8,0.00
2013-12-28,43.9,24.0,14.9,22.8,12.5,6.1,76,63,36,25.64,25.23,20,3,20,0.00
2013-12-29,37.0,27.7,17.8,22.1,16.6,11.4,81,64,46,25.57,25.31,29,2,29,0.00
2013-12-30,45.3,36.3,27.9,28.1,23.0,19.9,72,59,40,25.46,25.26,8,2,8,0.00
2013-12-31,42.6,37.4,34.7,30.6,27.1,20.9,78,66,52,25.41,25.23,18,3,18,0.00
2014-1-1,37.9,31.4,21.4,21.1,17.0,14.2,74,56,39,25.59,25.40,17,4,17,0.00
2014-1-2,46.2,36.1,20.7,26.7,19.7,14.0,76,53,37,25.54,25.11,13,2,13,0.00